createdAt,value
2018-10-09T00:01:21.665Z,1.77
2018-10-09T00:03:52.190Z,0.70
2018-10-09T00:06:23.973Z,0.97
2018-10-09T00:08:55.915Z,1.03
2018-10-09T00:11:27.434Z,1.00
2018-10-09T00:13:57.640Z,0.87
2018-10-09T00:16:30.090Z,0.80
2018-10-09T00:19:01.050Z,0.77
2018-10-09T00:21:31.992Z,1.33
2018-10-09T00:24:01.590Z,2.30
2018-10-09T00:26:32.172Z,2.97
2018-10-09T00:29:02.706Z,1.73
2018-10-09T00:31:33.311Z,1.07
2018-10-09T00:34:04.626Z,1.00
2018-10-09T00:36:34.454Z,1.10
2018-10-09T00:39:05.535Z,0.80
2018-10-09T00:41:36.285Z,0.80
2018-10-09T00:44:07.020Z,0.70
2018-10-09T00:46:38.116Z,1.17
2018-10-09T00:49:08.871Z,1.20
2018-10-09T00:51:40.237Z,1.23
2018-10-09T00:54:11.604Z,1.07
2018-10-09T00:56:44.537Z,1.30
2018-10-09T00:59:16.117Z,1.83
2018-10-09T01:01:47.082Z,1.03
2018-10-09T01:04:18.599Z,1.27
2018-10-09T01:06:48.299Z,0.90
2018-10-09T01:09:20.067Z,0.93
2018-10-09T01:11:49.898Z,1.17
2018-10-09T01:14:20.014Z,1.57
2018-10-09T01:16:51.153Z,2.97
2018-10-09T01:19:21.676Z,1.83
2018-10-09T01:21:53.540Z,1.60
2018-10-09T01:24:24.079Z,2.37
2018-10-09T01:26:54.327Z,1.00
2018-10-09T01:29:26.123Z,1.10
2018-10-09T01:31:56.889Z,1.77
2018-10-09T01:34:27.228Z,1.80
2018-10-09T01:36:57.305Z,2.83
2018-10-09T01:39:28.725Z,2.87
2018-10-09T01:41:59.181Z,3.87
2018-10-09T01:44:31.591Z,1.90
2018-10-09T01:47:02.307Z,1.70
2018-10-09T01:49:32.853Z,2.10
2018-10-09T01:52:04.441Z,1.87
2018-10-09T01:54:35.892Z,1.57
2018-10-09T01:57:06.430Z,1.20
2018-10-09T01:59:38.134Z,2.07
2018-10-09T02:02:08.161Z,3.63
2018-10-09T02:04:37.871Z,2.67
2018-10-09T02:07:07.743Z,3.33
2018-10-09T02:09:38.885Z,2.93
2018-10-09T02:12:08.126Z,2.03
2018-10-09T02:14:37.593Z,1.87
2018-10-09T02:17:08.924Z,2.57
2018-10-09T02:19:38.302Z,3.20
2018-10-09T02:22:08.039Z,5.73
2018-10-09T02:24:37.957Z,1.33
2018-10-09T02:27:09.386Z,2.03
2018-10-09T02:29:39.662Z,2.47
2018-10-09T02:32:08.512Z,1.80
2018-10-09T02:34:39.066Z,1.67
2018-10-09T02:37:10.376Z,3.27
2018-10-09T02:39:40.967Z,2.40
2018-10-09T02:42:12.578Z,1.50
2018-10-09T02:44:43.218Z,2.00
2018-10-09T02:47:13.868Z,2.53
2018-10-09T02:49:45.232Z,2.33
2018-10-09T02:52:16.182Z,2.53
2018-10-09T02:54:47.708Z,1.80
2018-10-09T02:57:18.109Z,1.90
2018-10-09T02:59:49.152Z,2.67
2018-10-09T03:02:20.227Z,1.50
2018-10-09T03:04:51.857Z,2.67
2018-10-09T03:07:24.018Z,1.50
2018-10-09T03:09:54.273Z,2.07
2018-10-09T03:12:25.871Z,4.03
2018-10-09T03:14:57.507Z,2.87
2018-10-09T03:17:28.635Z,5.77
2018-10-09T03:20:00.374Z,2.70
2018-10-09T03:22:30.734Z,4.77
2018-10-09T03:25:02.336Z,1.93
2018-10-09T03:27:31.959Z,3.03
2018-10-09T03:30:00.889Z,2.30
2018-10-09T03:32:30.819Z,2.07
2018-10-09T03:35:06.455Z,2.90
2018-10-09T03:37:36.004Z,5.03
2018-10-09T03:40:08.248Z,2.03
2018-10-09T03:42:39.093Z,1.60
2018-10-09T03:45:08.715Z,2.50
2018-10-09T03:47:39.317Z,3.37
2018-10-09T03:50:11.042Z,2.43
2018-10-09T03:52:41.708Z,3.63
2018-10-09T03:55:11.715Z,2.47
2018-10-09T03:57:41.512Z,4.73
2018-10-09T04:00:11.405Z,2.93
2018-10-09T04:02:43.099Z,1.77
2018-10-09T04:05:13.693Z,2.00
2018-10-09T04:07:45.357Z,3.20
2018-10-09T04:10:16.042Z,1.47
2018-10-09T04:12:47.593Z,2.40
2018-10-09T04:15:18.989Z,3.50
2018-10-09T04:17:50.669Z,2.17
2018-10-09T04:20:20.485Z,3.63
2018-10-09T04:22:50.213Z,3.97
2018-10-09T04:25:19.760Z,4.87
2018-10-09T04:27:48.780Z,1.47
2018-10-09T04:30:18.839Z,1.50
2018-10-09T04:32:51.133Z,1.73
2018-10-09T04:35:21.384Z,1.67
2018-10-09T04:37:52.901Z,1.83
2018-10-09T04:40:24.941Z,1.70
2018-10-09T04:42:55.418Z,2.67
2018-10-09T04:45:29.721Z,2.20
2018-10-09T04:48:02.654Z,1.93
2018-10-09T04:50:33.316Z,1.33
2018-10-09T04:53:03.560Z,1.83
2018-10-09T04:55:32.603Z,2.33
2018-10-09T04:58:03.572Z,1.63
2018-10-09T05:00:33.056Z,1.60
2018-10-09T05:03:03.963Z,3.43
2018-10-09T05:05:35.929Z,3.93
2018-10-09T05:08:08.238Z,3.23
2018-10-09T05:10:39.564Z,1.87
2018-10-09T05:13:10.889Z,1.90
2018-10-09T05:15:39.738Z,2.77
2018-10-09T05:18:10.189Z,3.77
2018-10-09T05:20:40.888Z,4.17
2018-10-09T05:23:11.035Z,2.37
2018-10-09T05:25:41.712Z,3.07
2018-10-09T05:28:11.635Z,2.73
2018-10-09T05:30:42.275Z,4.37
2018-10-09T05:33:11.087Z,2.47
2018-10-09T05:35:42.724Z,3.27
2018-10-09T05:38:11.829Z,2.57
2018-10-09T05:40:42.645Z,2.07
2018-10-09T05:43:12.970Z,6.33
2018-10-09T05:45:43.372Z,3.03
2018-10-09T05:48:13.959Z,2.43
2018-10-09T05:50:46.170Z,3.50
2018-10-09T05:53:16.723Z,2.37
2018-10-09T05:55:48.582Z,3.03
2018-10-09T05:58:20.315Z,1.80
2018-10-09T06:00:51.154Z,3.13
2018-10-09T06:03:20.516Z,3.13
2018-10-09T06:05:51.115Z,5.67
2018-10-09T06:08:20.874Z,2.20
2018-10-09T06:10:52.728Z,1.43
2018-10-09T06:13:24.033Z,3.97
2018-10-09T06:15:53.695Z,3.47
2018-10-09T06:18:24.877Z,2.73
2018-10-09T06:20:56.543Z,2.93
2018-10-09T06:23:26.873Z,3.20
2018-10-09T06:25:56.631Z,2.93
2018-10-09T06:28:27.282Z,1.63
2018-10-09T06:30:57.695Z,3.10
2018-10-09T06:33:29.190Z,3.67
2018-10-09T06:36:00.149Z,3.37
2018-10-09T06:38:30.937Z,2.70
2018-10-09T06:41:01.330Z,6.03
2018-10-09T06:43:30.822Z,7.40
2018-10-09T06:46:00.577Z,2.87
2018-10-09T06:48:31.570Z,4.93
2018-10-09T06:51:02.413Z,1.83
2018-10-09T06:53:34.366Z,1.70
2018-10-09T06:56:05.738Z,3.23
2018-10-09T06:58:36.882Z,5.73
2018-10-09T07:01:07.008Z,4.30
2018-10-09T07:03:37.469Z,2.17
2018-10-09T07:06:07.948Z,2.33
2018-10-09T07:08:39.706Z,2.17
2018-10-09T07:11:11.029Z,5.10
2018-10-09T07:13:42.589Z,2.10
2018-10-09T07:16:12.618Z,2.93
2018-10-09T07:18:43.081Z,3.17
2018-10-09T07:21:13.560Z,6.43
2018-10-09T07:23:43.810Z,2.03
2018-10-09T07:26:13.813Z,4.50
2018-10-09T07:28:42.660Z,1.70
2018-10-09T07:31:11.863Z,2.43
2018-10-09T07:33:42.544Z,1.80
2018-10-09T07:36:15.005Z,3.17
2018-10-09T07:38:45.995Z,3.93
2018-10-09T07:41:16.364Z,3.90
2018-10-09T07:43:48.900Z,2.60
2018-10-09T07:46:19.581Z,3.13
2018-10-09T07:48:49.193Z,7.23
2018-10-09T07:51:20.005Z,5.37
2018-10-09T07:53:50.801Z,4.03
2018-10-09T07:56:21.668Z,4.90
2018-10-09T07:58:51.522Z,4.87
2018-10-09T08:01:21.523Z,2.37
2018-10-09T08:03:53.266Z,1.50
2018-10-09T08:06:22.438Z,5.20
2018-10-09T08:08:54.150Z,4.43
2018-10-09T08:11:26.300Z,2.73
2018-10-09T08:13:57.117Z,4.90
2018-10-09T08:16:28.171Z,3.50
2018-10-09T08:18:59.230Z,3.20
2018-10-09T08:21:28.848Z,4.17
2018-10-09T08:24:01.149Z,6.70
2018-10-09T08:26:30.898Z,3.73
2018-10-09T08:29:00.096Z,4.93
2018-10-09T08:31:30.452Z,4.57
2018-10-09T08:34:01.335Z,4.17
2018-10-09T08:36:30.374Z,2.90
2018-10-09T08:39:01.521Z,4.37
2018-10-09T08:41:33.152Z,3.47
2018-10-09T08:44:04.223Z,4.43
2018-10-09T08:46:34.851Z,5.80
2018-10-09T08:49:04.358Z,3.47
2018-10-09T08:51:34.739Z,4.27
2018-10-09T08:54:06.467Z,3.40
2018-10-09T08:56:38.237Z,6.17
2018-10-09T08:59:09.974Z,3.60
2018-10-09T09:01:40.897Z,7.13
2018-10-09T09:04:10.913Z,3.03
2018-10-09T09:06:41.501Z,6.40
2018-10-09T09:09:11.793Z,4.90
2018-10-09T09:11:41.782Z,4.87
2018-10-09T09:14:11.581Z,7.20
2018-10-09T09:16:41.865Z,9.30
2018-10-09T09:19:12.582Z,7.43
2018-10-09T09:21:43.403Z,4.77
2018-10-09T09:24:15.234Z,5.97
2018-10-09T09:26:45.790Z,4.33
2018-10-09T09:29:17.322Z,11.37
2018-10-09T09:31:47.846Z,6.63
2018-10-09T09:34:17.990Z,8.50
2018-10-09T09:36:47.909Z,8.90
2018-10-09T09:39:17.021Z,8.13
2018-10-09T09:41:48.447Z,8.50
2018-10-09T09:44:17.505Z,13.67
2018-10-09T09:46:48.552Z,9.40
2018-10-09T09:49:20.069Z,9.37
2018-10-09T09:51:50.681Z,9.03
2018-10-09T09:54:21.508Z,9.73
2018-10-09T09:56:51.108Z,7.60
2018-10-09T09:59:21.830Z,9.10
2018-10-09T10:01:52.444Z,11.87
2018-10-09T10:04:22.946Z,9.33
2018-10-09T10:06:55.738Z,8.93
2018-10-09T10:09:26.989Z,11.07
2018-10-09T10:11:59.521Z,11.70
2018-10-09T10:14:29.939Z,11.90
2018-10-09T10:16:59.846Z,8.00
2018-10-09T10:19:29.999Z,11.80
2018-10-09T10:22:00.225Z,13.37
2018-10-09T10:24:31.033Z,10.80
2018-10-09T10:27:00.951Z,11.93
2018-10-09T10:29:31.970Z,6.63
2018-10-09T10:32:02.545Z,9.63
2018-10-09T10:34:32.957Z,9.53
2018-10-09T10:37:04.066Z,11.90
2018-10-09T10:39:33.953Z,9.40
2018-10-09T10:42:04.533Z,12.67
2018-10-09T10:44:35.109Z,13.90
2018-10-09T10:47:07.330Z,8.17
2018-10-09T10:49:37.086Z,10.80
2018-10-09T10:52:06.006Z,8.70
2018-10-09T10:54:36.717Z,8.37
2018-10-09T10:57:06.417Z,7.83
2018-10-09T10:59:35.959Z,8.93
2018-10-09T11:02:06.405Z,8.90
2018-10-09T11:04:35.161Z,5.63
2018-10-09T11:07:05.245Z,7.23
2018-10-09T11:09:36.645Z,9.30
2018-10-09T11:12:07.349Z,7.27
2018-10-09T11:14:37.883Z,8.20
2018-10-09T11:17:09.726Z,9.63
2018-10-09T11:19:39.853Z,9.13
2018-10-09T11:22:10.537Z,7.87
2018-10-09T11:24:42.173Z,5.87
2018-10-09T11:27:13.056Z,8.00
2018-10-09T11:29:43.809Z,9.53
2018-10-09T11:32:14.333Z,11.93
2018-10-09T11:34:44.653Z,8.20
2018-10-09T11:37:14.193Z,8.30
2018-10-09T11:39:45.777Z,10.77
2018-10-09T11:42:17.170Z,8.30
2018-10-09T11:44:46.946Z,7.57
2018-10-09T11:47:17.929Z,7.97
2018-10-09T11:49:48.442Z,6.10
2018-10-09T11:52:19.208Z,7.17
2018-10-09T11:54:49.428Z,7.33
2018-10-09T11:57:20.833Z,6.07
2018-10-09T11:59:50.928Z,7.77
2018-10-09T12:02:22.242Z,7.17
2018-10-09T12:04:53.057Z,6.27
2018-10-09T12:07:23.552Z,4.50
2018-10-09T12:09:54.501Z,6.63
2018-10-09T12:12:24.549Z,6.67
2018-10-09T12:15:01.256Z,6.70
2018-10-09T12:17:31.861Z,9.70
2018-10-09T12:20:01.447Z,10.13
2018-10-09T12:22:30.289Z,8.00
2018-10-09T12:25:02.079Z,10.53
2018-10-09T12:27:32.679Z,8.13
2018-10-09T12:30:01.693Z,7.77
2018-10-09T12:32:32.517Z,6.73
2018-10-09T12:35:01.335Z,8.13
2018-10-09T12:37:33.146Z,7.13
2018-10-09T12:40:03.028Z,12.17
2018-10-09T12:42:33.433Z,6.20
2018-10-09T12:45:04.945Z,6.93
2018-10-09T12:47:37.060Z,5.80
2018-10-09T12:50:07.986Z,11.63
2018-10-09T12:52:38.220Z,10.07
2018-10-09T12:55:09.262Z,7.50
2018-10-09T12:57:39.924Z,6.97
2018-10-09T13:00:10.110Z,10.20
2018-10-09T13:02:41.195Z,7.67
2018-10-09T13:05:11.426Z,9.20
2018-10-09T13:07:42.509Z,5.33
2018-10-09T13:10:12.710Z,6.97
2018-10-09T13:12:42.986Z,9.43
2018-10-09T13:15:13.048Z,6.40
2018-10-09T13:17:42.836Z,10.37
2018-10-09T13:20:12.073Z,7.87
2018-10-09T13:22:41.007Z,6.87
2018-10-09T13:25:11.373Z,5.60
2018-10-09T13:27:41.928Z,8.93
2018-10-09T13:30:11.637Z,8.57
2018-10-09T13:32:41.887Z,7.93
2018-10-09T13:35:11.073Z,7.67
2018-10-09T13:37:41.862Z,5.63
2018-10-09T13:40:12.042Z,9.47
2018-10-09T13:42:42.750Z,12.03
2018-10-09T13:45:14.193Z,10.17
2018-10-09T13:47:45.450Z,8.90
2018-10-09T13:50:16.206Z,5.67
2018-10-09T13:52:46.769Z,6.00
2018-10-09T13:55:18.008Z,6.80
2018-10-09T13:57:50.430Z,7.73
2018-10-09T14:00:21.725Z,10.57
2018-10-09T14:02:52.549Z,9.50
2018-10-09T14:05:23.244Z,5.40
2018-10-09T14:07:53.911Z,11.20
2018-10-09T14:10:24.027Z,9.37
2018-10-09T14:12:53.040Z,4.93
2018-10-09T14:15:23.336Z,7.97
2018-10-09T14:17:52.939Z,9.53
2018-10-09T14:20:25.314Z,8.47
2018-10-09T14:22:54.205Z,8.17
2018-10-09T14:25:26.582Z,9.43
2018-10-09T14:27:57.288Z,6.27
2018-10-09T14:30:28.811Z,6.37
2018-10-09T14:32:59.695Z,6.33
2018-10-09T14:35:29.737Z,9.10
2018-10-09T14:38:02.235Z,4.83
2018-10-09T14:40:31.977Z,7.47
2018-10-09T14:43:04.088Z,7.77
2018-10-09T14:45:34.990Z,6.20
2018-10-09T14:48:07.151Z,5.67
2018-10-09T14:50:36.878Z,5.37
2018-10-09T14:53:08.773Z,7.13
2018-10-09T14:55:39.803Z,7.90
2018-10-09T14:58:12.046Z,7.67
2018-10-09T15:00:42.354Z,6.47
2018-10-09T15:03:11.920Z,8.23
2018-10-09T15:05:44.609Z,7.63
2018-10-09T15:08:14.347Z,6.87
2018-10-09T15:10:44.578Z,4.60
2018-10-09T15:13:14.086Z,6.27
2018-10-09T15:15:45.604Z,4.97
2018-10-09T15:18:16.004Z,6.07
2018-10-09T15:20:47.438Z,5.90
2018-10-09T15:23:17.211Z,5.27
2018-10-09T15:25:47.912Z,7.13
2018-10-09T15:28:17.822Z,3.80
2018-10-09T15:30:47.908Z,6.20
2018-10-09T15:33:18.923Z,5.27
2018-10-09T15:35:49.262Z,8.70
2018-10-09T15:38:20.803Z,7.43
2018-10-09T15:40:51.825Z,3.93
2018-10-09T15:43:21.512Z,6.60
2018-10-09T15:45:50.644Z,10.90
2018-10-09T15:48:20.430Z,7.90
2018-10-09T15:50:50.723Z,7.27
2018-10-09T15:53:21.746Z,9.57
2018-10-09T15:55:52.275Z,7.90
2018-10-09T15:58:21.037Z,6.73
2018-10-09T16:00:51.173Z,8.43
2018-10-09T16:03:20.944Z,6.17
2018-10-09T16:05:51.325Z,9.23
2018-10-09T16:08:20.585Z,5.73
2018-10-09T16:10:50.788Z,8.20
2018-10-09T16:13:21.437Z,7.30
2018-10-09T16:15:50.808Z,6.40
2018-10-09T16:18:21.102Z,6.13
2018-10-09T16:20:50.711Z,7.47
2018-10-09T16:23:21.746Z,5.30
2018-10-09T16:25:52.494Z,5.50
2018-10-09T16:28:22.906Z,5.97
2018-10-09T16:30:51.650Z,6.70
2018-10-09T16:33:20.802Z,5.77
2018-10-09T16:35:50.819Z,8.60
2018-10-09T16:38:20.655Z,6.93
2018-10-09T16:40:51.443Z,4.43
2018-10-09T16:43:22.132Z,6.53
2018-10-09T16:45:52.632Z,6.57
2018-10-09T16:48:22.451Z,9.20
2018-10-09T16:50:52.648Z,5.83
2018-10-09T16:53:22.830Z,7.23
2018-10-09T16:55:52.645Z,7.10
2018-10-09T16:58:21.769Z,5.73
2018-10-09T17:00:54.096Z,8.23
2018-10-09T17:03:25.262Z,6.03
2018-10-09T17:05:55.146Z,6.07
2018-10-09T17:08:25.118Z,5.97
2018-10-09T17:10:57.705Z,6.13
2018-10-09T17:13:29.502Z,7.80
2018-10-09T17:16:00.115Z,7.03
2018-10-09T17:18:29.558Z,4.83
2018-10-09T17:20:59.726Z,3.63
2018-10-09T17:23:28.898Z,5.47
2018-10-09T17:26:00.271Z,6.10
2018-10-09T17:28:31.044Z,3.37
2018-10-09T17:31:00.691Z,7.60
2018-10-09T17:33:31.778Z,10.10
2018-10-09T17:36:02.552Z,9.00
2018-10-09T17:38:33.912Z,3.73
2018-10-09T17:41:05.491Z,7.47
2018-10-09T17:43:34.365Z,5.67
2018-10-09T17:46:04.444Z,4.90
2018-10-09T17:48:33.765Z,8.13
2018-10-09T17:51:04.439Z,6.60
2018-10-09T17:53:35.726Z,4.57
2018-10-09T17:56:05.854Z,4.20
2018-10-09T17:58:36.358Z,4.07
2018-10-09T18:01:06.555Z,6.77
2018-10-09T18:03:36.178Z,6.23
2018-10-09T18:06:05.931Z,12.77
2018-10-09T18:08:36.246Z,9.47
2018-10-09T18:11:06.931Z,7.87
2018-10-09T18:13:38.025Z,7.73
2018-10-09T18:16:08.389Z,7.67
2018-10-09T18:18:39.091Z,7.43
2018-10-09T18:21:09.517Z,8.30
2018-10-09T18:23:39.851Z,7.47
2018-10-09T18:26:09.467Z,6.03
2018-10-09T18:28:41.298Z,9.50
2018-10-09T18:31:11.356Z,7.13
2018-10-09T18:33:41.357Z,8.23
2018-10-09T18:36:10.965Z,7.27
2018-10-09T18:38:41.709Z,6.90
2018-10-09T18:41:11.854Z,5.87
2018-10-09T18:43:41.909Z,5.47
2018-10-09T18:46:12.076Z,6.00
2018-10-09T18:48:41.688Z,5.13
2018-10-09T18:51:11.722Z,7.23
2018-10-09T18:53:42.771Z,8.23
2018-10-09T18:56:13.283Z,9.30
2018-10-09T18:58:43.199Z,8.90
2018-10-09T19:01:13.775Z,5.43
2018-10-09T19:03:44.028Z,5.17
2018-10-09T19:06:14.567Z,6.50
2018-10-09T19:08:44.245Z,7.17
2018-10-09T19:11:15.968Z,8.97
2018-10-09T19:13:46.773Z,6.53
2018-10-09T19:16:17.771Z,6.63
2018-10-09T19:18:48.553Z,7.03
2018-10-09T19:21:19.090Z,6.80
2018-10-09T19:23:49.724Z,6.50
2018-10-09T19:26:20.259Z,9.60
2018-10-09T19:28:49.537Z,7.40
2018-10-09T19:31:21.479Z,6.23
2018-10-09T19:33:51.106Z,9.77
2018-10-09T19:36:20.742Z,6.70
2018-10-09T19:38:50.749Z,6.60
2018-10-09T19:41:21.680Z,7.30
2018-10-09T19:43:52.469Z,7.20
2018-10-09T19:46:23.414Z,7.53
2018-10-09T19:48:53.397Z,5.03
2018-10-09T19:51:23.560Z,5.83
2018-10-09T19:53:53.414Z,5.80
2018-10-09T19:56:23.731Z,5.50
2018-10-09T19:58:55.601Z,7.23
2018-10-09T20:01:24.836Z,3.60
2018-10-09T20:03:54.437Z,5.63
2018-10-09T20:06:25.633Z,7.73
2018-10-09T20:08:56.732Z,7.67
2018-10-09T20:11:27.152Z,3.90
2018-10-09T20:13:59.078Z,8.23
2018-10-09T20:16:29.614Z,10.37
2018-10-09T20:19:00.936Z,10.20
2018-10-09T20:21:31.582Z,7.40
2018-10-09T20:24:02.461Z,6.13
2018-10-09T20:26:34.402Z,9.00
2018-10-09T20:29:05.790Z,6.73
2018-10-09T20:31:35.473Z,6.43
2018-10-09T20:34:05.677Z,10.87
2018-10-09T20:36:35.192Z,6.47
2018-10-09T20:39:06.011Z,6.93
2018-10-09T20:41:36.955Z,5.10
2018-10-09T20:44:08.165Z,5.20
2018-10-09T20:46:38.025Z,3.03
2018-10-09T20:49:07.705Z,5.17
2018-10-09T20:51:38.467Z,7.97
2018-10-09T20:54:09.933Z,6.73
2018-10-09T20:56:39.919Z,6.20
2018-10-09T20:59:10.809Z,4.80
2018-10-09T21:01:43.100Z,5.37
2018-10-09T21:04:14.261Z,8.83
2018-10-09T21:06:44.374Z,5.53
2018-10-09T21:09:13.599Z,7.47
2018-10-09T21:11:44.003Z,4.97
2018-10-09T21:14:14.823Z,5.60
2018-10-09T21:16:44.570Z,8.13
2018-10-09T21:19:13.652Z,3.60
2018-10-09T21:21:45.870Z,5.23
2018-10-09T21:24:16.351Z,9.67
2018-10-09T21:26:47.236Z,6.50
2018-10-09T21:29:18.633Z,4.07
2018-10-09T21:31:49.264Z,6.10
2018-10-09T21:34:20.436Z,5.23
2018-10-09T21:36:50.530Z,8.13
2018-10-09T21:39:21.782Z,6.43
2018-10-09T21:41:51.538Z,4.77
2018-10-09T21:44:22.022Z,6.00
2018-10-09T21:46:53.238Z,5.90
2018-10-09T21:49:23.984Z,6.97
2018-10-09T21:51:54.898Z,12.93
2018-10-09T21:54:25.495Z,8.87
2018-10-09T21:56:56.198Z,8.90
2018-10-09T21:59:26.290Z,5.47
2018-10-09T22:01:55.624Z,4.83
2018-10-09T22:04:26.362Z,6.07
2018-10-09T22:06:56.256Z,5.47
2018-10-09T22:09:26.578Z,7.00
2018-10-09T22:11:57.469Z,6.70
2018-10-09T22:14:28.077Z,7.60
2018-10-09T22:16:59.206Z,7.60
2018-10-09T22:19:29.895Z,9.60
2018-10-09T22:22:01.208Z,7.10
2018-10-09T22:24:30.956Z,11.63
2018-10-09T22:27:01.699Z,8.30
2018-10-09T22:29:33.001Z,8.07
2018-10-09T22:32:04.122Z,7.80
2018-10-09T22:34:34.472Z,7.20
2018-10-09T22:37:05.802Z,5.53
2018-10-09T22:39:36.770Z,9.43
2018-10-09T22:42:05.530Z,7.47
2018-10-09T22:44:36.362Z,5.97
2018-10-09T22:47:06.846Z,8.37
2018-10-09T22:49:36.668Z,7.27
2018-10-09T22:52:06.879Z,5.30
2018-10-09T22:54:37.342Z,13.40
2018-10-09T22:57:10.040Z,6.57
2018-10-09T22:59:40.868Z,6.23
2018-10-09T23:02:11.490Z,5.70
2018-10-09T23:04:41.466Z,5.37
2018-10-09T23:07:12.068Z,10.00
2018-10-09T23:09:42.881Z,9.20
2018-10-09T23:12:15.156Z,8.43
2018-10-09T23:14:44.264Z,9.27
2018-10-09T23:17:15.537Z,7.00
2018-10-09T23:19:46.881Z,7.33
2018-10-09T23:22:15.829Z,4.23
2018-10-09T23:24:44.841Z,9.93
2018-10-09T23:27:16.449Z,7.20
2018-10-09T23:29:47.084Z,7.83
2018-10-09T23:32:16.621Z,6.43
2018-10-09T23:34:47.000Z,8.40
2018-10-09T23:37:17.468Z,6.60
2018-10-09T23:39:47.909Z,9.47
2018-10-09T23:42:18.153Z,10.80
2018-10-09T23:44:48.997Z,6.30
2018-10-09T23:47:19.461Z,7.17
2018-10-09T23:49:49.129Z,10.43
2018-10-09T23:52:20.565Z,7.20
2018-10-09T23:54:50.488Z,11.63
2018-10-09T23:57:21.127Z,8.03
2018-10-09T23:59:52.309Z,6.90
